BUCHANAN DAM (BUC)

Elevation: 450' · CHOWCHILLA R basin · Operator: US Army Corps of Engineers

Provisional data, subject to change.
Query executed Tuesday at 11:37:55   clock

Select a sensor type for a plot of data.
Note: Reservoir Flows are daily averages.

Earlier

Date RES ELE    STORAGE    RES CHG    TOC STO    ABV TOC    OUTFLOW    INFLOW    PPT INC    TEMP MN    TEMP MX   
 FEET   AF   AF   AF   AF   CFS   CFS   INCHES   DEG F   DEG F  
05/29/2016 521.34 55859 12 149958 -94099 0 16 -- 16 35
05/30/2016 521.37 55893 34 150000 -94107 0 27 -- 15 37
05/31/2016 521.28 55791 -102 150000 -94209 60 19 -- 18 38
06/01/2016 521.05 55532 -259 150000 -94468 138 19 -- 19 41
06/02/2016 520.63 55059 -473 150000 -94941 256 28 -- 18 39
06/03/2016 520.05 54410 -649 150000 -95590 351 35 -- 18 40
06/04/2016 519.50 53797 -613 150000 -96203 355 57 -- 21 40
06/05/2016 519.09 53342 -455 150000 -96658 240 22 -- 19 39
06/06/2016 518.73 52943 -399 150000 -97057 194 4 -- 19 39
06/07/2016 518.34 52513 -386 150000 -97443 210 4 -- 18 39
06/08/2016 517.91 52041 -472 150000 -97915 231 3 -- 16 35
06/09/2016 517.46 51549 -492 150000 -98451 230 -8 -- 13 34
06/10/2016 517.03 51080 -469 150000 -98920 229 0 -- 15 31
06/11/2016 516.58 50591 -489 150000 -99409 228 -12 -- 13 30
06/12/2016 516.14 50116 -475 150000 -99884 227 -3 -- 16 33
06/13/2016 515.72 49663 -453 150000 -100337 227 8 -- 14 33
06/14/2016 515.23 49138 -525 150000 -100862 247 -8 -- 12 29
06/15/2016 514.56 48423 -715 150000 -101577 265 -87 -- 11 26
06/16/2016 514.20 48041 -382 150000 -101959 249 65 -- 9 28
06/17/2016 513.72 47533 -508 150000 -102467 239 -8 -- 12 32
06/18/2016 513.19 46976 -557 150000 -103024 217 -54 -- 15 31
06/19/2016 512.87 46640 -336 150000 -103360 221 62 -- 15 37
06/20/2016 512.38 46129 -511 150000 -103871 242 -5 -- 17 38
06/21/2016 511.85 45578 -551 150000 -104422 278 10 -- 19 40
06/22/2016 511.29 45000 -578 150000 -105000 298 18 -- 18 40
06/23/2016 510.72 44414 -586 150000 -105586 297 12 -- 15 37
06/24/2016 510.15 43832 -582 150000 -106168 296 13 -- 16 35
06/25/2016 509.59 43263 -569 150000 -106737 285 9 -- 16 38
06/26/2016 509.07 42738 -525 150000 -107262 261 7 -- 19 40
06/27/2016 508.56 42225 -513 150000 -107775 255 7 -- 20 41
06/28/2016 -- -- -- -- -- -- -- -- -- --

Later | Latest

Warning! This data is preliminary and subject to revision.

Show BUC Map | Plot BUC Data | 1 Month BUC Data | Real-Time BUC Data | BUC Info